| time (UTC) | temp C | wind direction | speed KPH | gust KPH | rain 1hr cm | rain 24hr cm | rain mn cm | humidity % | barometer mb |
| 20260508023004 | -3 | 117 | 0.0 | 0.0 | 0.00 | 0.00 | 0.00 | 93 | 1021.5 |
| 20260508021503 | -3 | 117 | 0.0 | 0.0 | 0.00 | 0.00 | 0.00 | 93 | 1021.0 |
| 20260508014504 | -3 | 117 | 0.0 | 0.0 | 0.00 | 0.00 | 0.00 | 92 | 1021.0 |
| 20260508013004 | -3 | 117 | 0.0 | 0.0 | 0.00 | 0.00 | 0.00 | 92 | 1020.9 |
| 20260508011503 | -2 | 117 | 0.0 | 0.0 | 0.00 | 0.00 | 0.00 | 92 | 1020.9 |
| 20260508010004 | -2 | 117 | 0.0 | 0.0 | 0.00 | 0.00 | 0.00 | 92 | 1020.8 |
| 20260508004504 | -2 | 117 | 0.0 | 0.0 | 0.00 | 0.00 | 0.00 | 92 | 1020.8 |
| 20260508003004 | -2 | 117 | 0.0 | 0.0 | 0.00 | 0.00 | 0.00 | 92 | 1020.7 |
| 20260508001503 | -2 | 117 | 0.0 | 0.0 | 0.00 | 0.00 | 0.00 | 92 | 1020.4 |
| 20260508000004 | -2 | 117 | 0.0 | 0.0 | 0.00 | 0.00 | 0.00 | 92 | 1020.3 |
| 20260507233003 | -1 | 117 | 0.0 | 0.0 | 0.00 | 0.00 | 0.00 | 91 | 1020.2 |
| 20260507231504 | -1 | 117 | 0.0 | 0.0 | 0.00 | 0.00 | 0.00 | 91 | 1019.8 |
| 20260507224504 | -1 | 117 | 0.0 | 0.0 | 0.00 | 0.00 | 0.00 | 90 | 1019.8 |
| 20260507221504 | -1 | 117 | 0.0 | 0.0 | 0.00 | 0.00 | 0.00 | 89 | 1019.3 |
| 20260507220004 | -1 | 117 | 0.0 | 0.0 | 0.00 | 0.00 | 0.00 | 89 | 1019.3 |
| 20260507213004 | 0 | 117 | 0.0 | 0.0 | 0.00 | 0.00 | 0.00 | 87 | 1018.9 |
| 20260507211504 | 0 | 117 | 0.0 | 0.0 | 0.00 | 0.00 | 0.00 | 86 | 1018.9 |
| 20260507210005 | 0 | 117 | 0.0 | 0.0 | 0.00 | 0.00 | 0.00 | 85 | 1018.9 |
| 20260507204504 | 1 | 117 | 0.0 | 0.0 | 0.00 | 0.00 | 0.00 | 84 | 1018.5 |
| 20260507203004 | 1 | 117 | 0.0 | 0.0 | 0.00 | 0.00 | 0.00 | 83 | 1018.5 |
| 20260507201504 | 1 | 117 | 0.0 | 0.0 | 0.00 | 0.00 | 0.00 | 81 | 1018.2 |
| 20260507200004 | 2 | 117 | 0.0 | 0.0 | 0.00 | 0.00 | 0.00 | 79 | 1018.2 |
| 20260507194504 | 2 | 117 | 0.0 | 0.0 | 0.00 | 0.00 | 0.00 | 77 | 1018.0 |
| 20260507193003 | 3 | 117 | 0.0 | 0.0 | 0.00 | 0.00 | 0.00 | 74 | 1017.7 |
| 20260507191503 | 4 | 117 | 0.0 | 1.6 | 0.00 | 0.00 | 0.00 | 71 | 1017.7 |
| 20260507190005 | 5 | 117 | 1.6 | 4.8 | 0.00 | 0.00 | 0.00 | 66 | 1017.3 |
| 20260507181504 | 9 | 114 | 1.6 | 11.3 | 0.00 | 0.00 | 0.00 | 48 | 1016.8 |
| 20260507180004 | 10 | 111 | 4.8 | 11.3 | 0.00 | 0.00 | 0.00 | 45 | 1016.8 |
| 20260507173004 | 11 | 114 | 3.2 | 11.3 | 0.00 | 0.00 | 0.00 | 43 | 1016.4 |
| 20260507171504 | 11 | 111 | 1.6 | 14.5 | 0.00 | 0.00 | 0.00 | 42 | 1016.4 |
| 20260507170005 | 11 | 109 | 4.8 | 16.1 | 0.00 | 0.00 | 0.00 | 34 | 1016.2 |
| 20260507164504 | 12 | 121 | 1.6 | 16.1 | 0.00 | 0.00 | 0.00 | 24 | 1016.1 |
| 20260507163003 | 12 | 117 | 8.0 | 14.5 | 0.00 | 0.00 | 0.00 | 23 | 1015.9 |
| 20260507161504 | 12 | 120 | 4.8 | 16.1 | 0.00 | 0.00 | 0.00 | 28 | 1015.9 |
| 20260507154504 | 12 | 116 | 6.4 | 14.5 | 0.00 | 0.00 | 0.00 | 29 | 1015.7 |
| 20260507153004 | 12 | 109 | 8.0 | 14.5 | 0.00 | 0.00 | 0.00 | 26 | 1015.7 |
| 20260507151504 | 13 | 109 | 6.4 | 19.3 | 0.00 | 0.00 | 0.00 | 25 | 1015.4 |
| 20260507150004 | 13 | 103 | 4.8 | 14.5 | 0.00 | 0.00 | 0.00 | 28 | 1015.4 |
| 20260507144503 | 12 | 95 | 11.3 | 19.3 | 0.00 | 0.00 | 0.00 | 28 | 1015.4 |
| 20260507143004 | 13 | 111 | 12.9 | 20.9 | 0.00 | 0.00 | 0.00 | 33 | 1015.3 |
| 20260507141504 | 13 | 106 | 11.3 | 20.9 | 0.00 | 0.00 | 0.00 | 33 | 1015.2 |
| 20260507140005 | 13 | 109 | 6.4 | 19.3 | 0.00 | 0.00 | 0.00 | 38 | 1015.2 |
| 20260507134504 | 13 | 111 | 9.7 | 22.5 | 0.00 | 0.00 | 0.00 | 40 | 1015.0 |
| 20260507133003 | 13 | 89 | 16.1 | 22.5 | 0.00 | 0.00 | 0.00 | 37 | 1015.0 |
| 20260507131504 | 13 | 79 | 9.7 | 20.9 | 0.00 | 0.00 | 0.00 | 38 | 1015.0 |
| 20260507130004 | 12 | 109 | 11.3 | 19.3 | 0.00 | 0.00 | 0.00 | 37 | 1015.2 |
| 20260507123004 | 13 | 91 | 11.3 | 22.5 | 0.00 | 0.00 | 0.00 | 35 | 1014.8 |
| 20260507121503 | 13 | 95 | 11.3 | 24.1 | 0.00 | 0.00 | 0.00 | 36 | 1014.6 |
| 20260507120005 | 13 | 84 | 12.9 | 20.9 | 0.00 | 0.00 | 0.00 | 32 | 1014.6 |
| 20260507114504 | 13 | 89 | 11.3 | 19.3 | 0.00 | 0.00 | 0.00 | 27 | 1014.6 |
| 20260507113005 | 13 | 105 | 9.7 | 20.9 | 0.00 | 0.00 | 0.00 | 28 | 1014.5 |
| 20260507111506 | 13 | 127 | 9.7 | 19.3 | 0.00 | 0.00 | 0.00 | 28 | 1014.5 |
| 20260507110004 | 13 | 135 | 11.3 | 19.3 | 0.00 | 0.00 | 0.00 | 26 | 1014.5 |
| 20260507104504 | 14 | 108 | 11.3 | 19.3 | 0.00 | 0.00 | 0.00 | 29 | 1014.4 |
| 20260507103004 | 14 | 61 | 3.2 | 14.5 | 0.00 | 0.00 | 0.00 | 29 | 1014.4 |
| 20260507101504 | 13 | 99 | 6.4 | 19.3 | 0.00 | 0.00 | 0.00 | 35 | 1014.3 |
| 20260507100004 | 13 | 70 | 4.8 | 19.3 | 0.00 | 0.00 | 0.00 | 31 | 1014.3 |
| 20260507093003 | 13 | 107 | 3.2 | 16.1 | 0.00 | 0.00 | 0.00 | 39 | 1014.0 |
| 20260507091504 | 13 | 74 | 12.9 | 19.3 | 0.00 | 0.00 | 0.00 | 41 | 1014.0 |
| 20260507090004 | 13 | 69 | 11.3 | 16.1 | 0.00 | 0.00 | 0.00 | 39 | 1014.0 |
| 20260507084504 | 13 | 71 | 1.6 | 4.8 | 0.00 | 0.00 | 0.00 | 30 | 1014.0 |
| 20260507083005 | 13 | 43 | 6.4 | 16.1 | 0.00 | 0.00 | 0.00 | 28 | 1013.9 |
| 20260507080004 | 13 | 323 | 1.6 | 16.1 | 0.00 | 0.00 | 0.00 | 25 | 1013.8 |
| 20260507074504 | 12 | 325 | 3.2 | 11.3 | 0.00 | 0.00 | 0.00 | 29 | 1013.8 |
| 20260507073004 | 12 | 313 | 1.6 | 9.7 | 0.00 | 0.00 | 0.00 | 28 | 1013.8 |
| 20260507071504 | 12 | 347 | 3.2 | 9.7 | 0.00 | 0.00 | 0.00 | 34 | 1013.8 |
| 20260507070009 | 11 | 300 | 4.8 | 11.3 | 0.00 | 0.00 | 0.00 | 37 | 1013.8 |
| 20260507063004 | 10 | 304 | 3.2 | 8.0 | 0.00 | 0.00 | 0.00 | 50 | 1013.9 |
| 20260507061504 | 9 | 306 | 0.0 | 0.0 | 0.00 | 0.00 | 0.00 | 53 | 1013.8 |
| 20260507060004 | 8 | 292 | 0.0 | 0.0 | 0.00 | 0.00 | 0.00 | 64 | 1013.8 |
| 20260507054503 | 7 | 290 | 0.0 | 0.0 | 0.00 | 0.00 | 0.00 | 77 | 1013.8 |
| 20260507053004 | 5 | 290 | 0.0 | 0.0 | 0.00 | 0.00 | 0.00 | 85 | 1013.8 |
| 20260507051503 | 3 | 290 | 0.0 | 0.0 | 0.00 | 0.00 | 0.00 | 91 | 1013.8 |
| 20260507050004 | 2 | 290 | 0.0 | 4.8 | 0.00 | 0.00 | 0.00 | 95 | 1013.6 |
| 20260507044503 | 0 | 290 | 4.8 | 4.8 | 0.00 | 0.00 | 0.00 | 95 | 1013.6 |
| 20260507041503 | -2 | 286 | 3.2 | 8.0 | 0.00 | 0.00 | 0.00 | 95 | 1013.6 |
| 20260507040004 | -2 | 295 | 4.8 | 8.0 | 0.00 | 0.00 | 0.00 | 95 | 1013.3 |
| 20260507034504 | -3 | 313 | 3.2 | 4.8 | 0.00 | 0.00 | 0.00 | 94 | 1013.3 |
| 20260507033004 | -3 | 314 | 4.8 | 8.0 | 0.00 | 0.00 | 0.00 | 94 | 1013.3 |
| 20260507030004 | -3 | 323 | 1.6 | 4.8 | 0.00 | 0.00 | 0.00 | 94 | 1013.0 |
| 20260507024503 | -3 | 323 | 1.6 | 4.8 | 0.00 | 0.00 | 0.00 | 94 | 1013.0 |